Strona główna
METAR-TAF:

METAR-TAF

Lotnisko :

Laupheim, Niemcy

Szerokość geograficzna: 48-13N, Długość geograficzna: 009-55E, wysokość: 538 m

Aktualna obserwacja pogody

Raport powstał 24 minut temu, godzina 12:20 UTC
Wiatr 5 kt od zachód
Temperatura 25°C
Wilgotność 39%
Ciśnienie 1014 hPa
Widzialność 10 km lub więcej
Mało chmury na wysokości 6000 ft
Rozproszone chmury na wysokości 27000 ft

METAR: ETHL 171220Z 27005KT 9999 FEW060 SCT270 25/10 Q1014 BLU+BLU+

czas: 14:44 (12:44 UTC)

Prognoza

Raport powstał 2 godziny i 34 minut temu, godzina 10:10 UTC
Prognoza ważna od 17 godzina 11 UTC do 17 godzina 20 UTC
Wiatr 5 kt od zachód
Widzialność 10 km lub więcej
Mało chmury na wysokości 6000 ft
Rozproszone chmury na wysokości 25000 ft

TAF: ETHL 171010Z 1711/1720 26005KT 9999 NSW FEW060 SCT250

Obserwacja i prognoza pogody dla ponad 4000 lotnisk (raport METAR i TAF).

Dostępne stacje oznaczono żółtymi i czerwonymi punktami na mapie.

Najedź kursorem aby zobaczyć nazwę stacji.

Kliknij aby zobaczyć obserwacje i prognozy pogody.

Aby zmienić mapę: kliknij na zielony przycisk z czarnym krzyżykiem, aby powiększyć; na zielony przycisk z myślnikiem, aby pomniejszyć; na zielone strzałki, aby przejść do map sąsiednich.


METAR-TAF: